sensor_id;sensor_type;location;lat;lon;timestamp;temperature;humidity
71096;DHT22;58753;49.440;11.126;2023-04-06T00:00:23;-0.87;71.79
71096;DHT22;58753;49.440;11.126;2023-04-06T00:02:49;-0.85;71.92
71096;DHT22;58753;49.440;11.126;2023-04-06T00:05:14;-0.92;71.82
71096;DHT22;58753;49.440;11.126;2023-04-06T00:07:40;-0.92;72.06
71096;DHT22;58753;49.440;11.126;2023-04-06T00:10:06;-0.94;72.14
71096;DHT22;58753;49.440;11.126;2023-04-06T00:12:31;-0.95;72.17
71096;DHT22;58753;49.440;11.126;2023-04-06T00:14:57;-1.01;72.28
71096;DHT22;58753;49.440;11.126;2023-04-06T00:17:22;-0.98;72.63
71096;DHT22;58753;49.440;11.126;2023-04-06T00:19:48;-0.98;72.47
71096;DHT22;58753;49.440;11.126;2023-04-06T00:22:13;-1.01;72.59
71096;DHT22;58753;49.440;11.126;2023-04-06T00:24:39;-1.02;72.81
71096;DHT22;58753;49.440;11.126;2023-04-06T00:27:04;-1.06;72.77
71096;DHT22;58753;49.440;11.126;2023-04-06T00:29:30;-1.09;72.95
71096;DHT22;58753;49.440;11.126;2023-04-06T00:31:55;-1.05;73.22
71096;DHT22;58753;49.440;11.126;2023-04-06T00:34:21;-1.09;73.08
71096;DHT22;58753;49.440;11.126;2023-04-06T00:36:46;-1.11;73.33
71096;DHT22;58753;49.440;11.126;2023-04-06T00:39:11;-1.13;73.51
71096;DHT22;58753;49.440;11.126;2023-04-06T00:41:38;-1.15;73.54
71096;DHT22;58753;49.440;11.126;2023-04-06T00:44:04;-1.18;73.63
71096;DHT22;58753;49.440;11.126;2023-04-06T00:46:29;-1.19;73.72
71096;DHT22;58753;49.440;11.126;2023-04-06T00:48:56;-1.19;73.89
71096;DHT22;58753;49.440;11.126;2023-04-06T00:51:22;-1.24;73.89
71096;DHT22;58753;49.440;11.126;2023-04-06T00:53:47;-1.24;73.96
71096;DHT22;58753;49.440;11.126;2023-04-06T00:56:13;-1.24;74.28
71096;DHT22;58753;49.440;11.126;2023-04-06T00:58:38;-1.28;74.21
71096;DHT22;58753;49.440;11.126;2023-04-06T01:01:05;-1.34;74.41
71096;DHT22;58753;49.440;11.126;2023-04-06T01:03:31;-1.32;74.48
71096;DHT22;58753;49.440;11.126;2023-04-06T01:05:56;-1.32;74.57
71096;DHT22;58753;49.440;11.126;2023-04-06T01:08:24;-1.36;74.69
71096;DHT22;58753;49.440;11.126;2023-04-06T01:10:49;-1.36;74.84
71096;DHT22;58753;49.440;11.126;2023-04-06T01:13:15;-1.39;74.92
71096;DHT22;58753;49.440;11.126;2023-04-06T01:15:41;-1.42;74.85
71096;DHT22;58753;49.440;11.126;2023-04-06T01:18:10;-1.43;74.94
71096;DHT22;58753;49.440;11.126;2023-04-06T01:20:36;-1.47;75.05
71096;DHT22;58753;49.440;11.126;2023-04-06T01:23:01;-1.52;75.05
71096;DHT22;58753;49.440;11.126;2023-04-06T01:25:27;-1.52;75.14
71096;DHT22;58753;49.440;11.126;2023-04-06T01:27:52;-1.56;74.99
71096;DHT22;58753;49.440;11.126;2023-04-06T01:30:18;-1.62;75.10
71096;DHT22;58753;49.440;11.126;2023-04-06T01:32:43;-1.64;75.25
71096;DHT22;58753;49.440;11.126;2023-04-06T01:35:10;-1.69;75.19
71096;DHT22;58753;49.440;11.126;2023-04-06T01:37:36;-1.70;75.24
71096;DHT22;58753;49.440;11.126;2023-04-06T01:40:02;-1.71;75.45
71096;DHT22;58753;49.440;11.126;2023-04-06T01:42:27;-1.70;75.56
71096;DHT22;58753;49.440;11.126;2023-04-06T01:44:53;-1.70;75.60
71096;DHT22;58753;49.440;11.126;2023-04-06T01:47:18;-1.70;75.64
71096;DHT22;58753;49.440;11.126;2023-04-06T01:49:44;-1.76;75.61
71096;DHT22;58753;49.440;11.126;2023-04-06T01:52:09;-1.76;75.79
71096;DHT22;58753;49.440;11.126;2023-04-06T01:54:35;-1.79;75.87
71096;DHT22;58753;49.440;11.126;2023-04-06T01:57:00;-1.81;75.93
71096;DHT22;58753;49.440;11.126;2023-04-06T01:59:25;-1.84;75.97
71096;DHT22;58753;49.440;11.126;2023-04-06T02:01:51;-1.86;76.13
71096;DHT22;58753;49.440;11.126;2023-04-06T02:04:16;-1.83;76.33
71096;DHT22;58753;49.440;11.126;2023-04-06T02:06:42;-1.81;76.40
71096;DHT22;58753;49.440;11.126;2023-04-06T02:09:07;-1.80;76.45
71096;DHT22;58753;49.440;11.126;2023-04-06T02:11:32;-1.80;76.46
71096;DHT22;58753;49.440;11.126;2023-04-06T02:13:58;-1.84;76.59
71096;DHT22;58753;49.440;11.126;2023-04-06T02:16:25;-1.84;76.64
71096;DHT22;58753;49.440;11.126;2023-04-06T02:18:51;-1.89;76.61
71096;DHT22;58753;49.440;11.126;2023-04-06T02:21:16;-1.90;76.62
71096;DHT22;58753;49.440;11.126;2023-04-06T02:23:46;-1.95;76.72
71096;DHT22;58753;49.440;11.126;2023-04-06T02:26:12;-1.98;76.70
71096;DHT22;58753;49.440;11.126;2023-04-06T02:28:37;-2.00;76.93
71096;DHT22;58753;49.440;11.126;2023-04-06T02:31:03;-2.00;77.14
71096;DHT22;58753;49.440;11.126;2023-04-06T02:33:28;-2.02;77.09
71096;DHT22;58753;49.440;11.126;2023-04-06T02:35:54;-2.04;77.16
71096;DHT22;58753;49.440;11.126;2023-04-06T02:38:20;-2.07;77.22
71096;DHT22;58753;49.440;11.126;2023-04-06T02:40:45;-2.08;77.25
71096;DHT22;58753;49.440;11.126;2023-04-06T02:43:10;-2.15;77.14
71096;DHT22;58753;49.440;11.126;2023-04-06T02:45:36;-2.14;77.36
71096;DHT22;58753;49.440;11.126;2023-04-06T02:48:01;-2.18;77.45
71096;DHT22;58753;49.440;11.126;2023-04-06T02:50:27;-2.17;77.49
71096;DHT22;58753;49.440;11.126;2023-04-06T02:52:52;-2.18;77.45
71096;DHT22;58753;49.440;11.126;2023-04-06T02:55:18;-2.21;77.55
71096;DHT22;58753;49.440;11.126;2023-04-06T02:57:45;-2.21;77.66
71096;DHT22;58753;49.440;11.126;2023-04-06T03:00:11;-2.22;77.65
71096;DHT22;58753;49.440;11.126;2023-04-06T03:02:37;-2.20;77.87
71096;DHT22;58753;49.440;11.126;2023-04-06T03:05:02;-2.18;77.90
71096;DHT22;58753;49.440;11.126;2023-04-06T03:07:28;-2.18;77.78
71096;DHT22;58753;49.440;11.126;2023-04-06T03:09:54;-2.21;77.95
71096;DHT22;58753;49.440;11.126;2023-04-06T03:12:19;-2.20;78.09
71096;DHT22;58753;49.440;11.126;2023-04-06T03:14:45;-2.20;78.17
71096;DHT22;58753;49.440;11.126;2023-04-06T03:17:10;-2.22;78.21
71096;DHT22;58753;49.440;11.126;2023-04-06T03:19:36;-2.28;78.04
71096;DHT22;58753;49.440;11.126;2023-04-06T03:22:01;-2.25;78.41
71096;DHT22;58753;49.440;11.126;2023-04-06T03:24:27;-2.28;78.31
71096;DHT22;58753;49.440;11.126;2023-04-06T03:26:52;-2.30;78.40
71096;DHT22;58753;49.440;11.126;2023-04-06T03:29:18;-2.34;78.33
71096;DHT22;58753;49.440;11.126;2023-04-06T03:31:43;-2.35;78.33
71096;DHT22;58753;49.440;11.126;2023-04-06T03:34:08;-2.38;78.48
71096;DHT22;58753;49.440;11.126;2023-04-06T03:36:34;-2.45;78.43
71096;DHT22;58753;49.440;11.126;2023-04-06T03:39:00;-2.46;78.45
71096;DHT22;58753;49.440;11.126;2023-04-06T03:41:25;-2.48;78.53
71096;DHT22;58753;49.440;11.126;2023-04-06T03:43:51;-2.48;78.50
71096;DHT22;58753;49.440;11.126;2023-04-06T03:46:16;-2.48;78.66
71096;DHT22;58753;49.440;11.126;2023-04-06T03:48:42;-2.48;78.83
71096;DHT22;58753;49.440;11.126;2023-04-06T03:51:07;-2.51;78.70
71096;DHT22;58753;49.440;11.126;2023-04-06T03:53:33;-2.49;78.92
71096;DHT22;58753;49.440;11.126;2023-04-06T03:55:58;-2.55;78.80
71096;DHT22;58753;49.440;11.126;2023-04-06T03:58:23;-2.55;78.99
71096;DHT22;58753;49.440;11.126;2023-04-06T04:00:49;-2.56;78.91
71096;DHT22;58753;49.440;11.126;2023-04-06T04:03:14;-2.58;79.17
71096;DHT22;58753;49.440;11.126;2023-04-06T04:05:40;-2.63;78.82
71096;DHT22;58753;49.440;11.126;2023-04-06T04:08:05;-2.66;79.00
71096;DHT22;58753;49.440;11.126;2023-04-06T04:10:31;-2.68;79.10
71096;DHT22;58753;49.440;11.126;2023-04-06T04:12:56;-2.66;79.39
71096;DHT22;58753;49.440;11.126;2023-04-06T04:15:22;-2.68;79.45
71096;DHT22;58753;49.440;11.126;2023-04-06T04:17:47;-2.66;79.60
71096;DHT22;58753;49.440;11.126;2023-04-06T04:20:14;-2.68;79.47
71096;DHT22;58753;49.440;11.126;2023-04-06T04:22:40;-2.69;79.66
71096;DHT22;58753;49.440;11.126;2023-04-06T04:25:06;-2.73;79.53
71096;DHT22;58753;49.440;11.126;2023-04-06T04:27:31;-2.75;79.68
71096;DHT22;58753;49.440;11.126;2023-04-06T04:29:57;-2.72;79.92
71096;DHT22;58753;49.440;11.126;2023-04-06T04:32:22;-2.73;79.92
71096;DHT22;58753;49.440;11.126;2023-04-06T04:34:48;-2.75;80.01
71096;DHT22;58753;49.440;11.126;2023-04-06T04:37:13;-2.73;80.12
71096;DHT22;58753;49.440;11.126;2023-04-06T04:39:38;-2.73;80.07
71096;DHT22;58753;49.440;11.126;2023-04-06T04:42:04;-2.72;80.22
71096;DHT22;58753;49.440;11.126;2023-04-06T04:44:30;-2.72;80.26
71096;DHT22;58753;49.440;11.126;2023-04-06T04:46:55;-2.68;80.35
71096;DHT22;58753;49.440;11.126;2023-04-06T04:49:21;-2.68;80.26
71096;DHT22;58753;49.440;11.126;2023-04-06T04:51:47;-2.63;80.44
71096;DHT22;58753;49.440;11.126;2023-04-06T04:54:12;-2.66;80.30
71096;DHT22;58753;49.440;11.126;2023-04-06T04:56:38;-2.68;80.49
71096;DHT22;58753;49.440;11.126;2023-04-06T04:59:03;-2.63;80.59
71096;DHT22;58753;49.440;11.126;2023-04-06T05:01:29;-2.62;80.60
71096;DHT22;58753;49.440;11.126;2023-04-06T05:03:54;-2.59;80.59
71096;DHT22;58753;49.440;11.126;2023-04-06T05:06:19;-2.59;80.49
71096;DHT22;58753;49.440;11.126;2023-04-06T05:08:45;-2.56;80.63
71096;DHT22;58753;49.440;11.126;2023-04-06T05:11:11;-2.53;80.68
71096;DHT22;58753;49.440;11.126;2023-04-06T05:13:36;-2.52;80.54
71096;DHT22;58753;49.440;11.126;2023-04-06T05:16:02;-2.53;80.49
71096;DHT22;58753;49.440;11.126;2023-04-06T05:18:27;-2.48;80.58
71096;DHT22;58753;49.440;11.126;2023-04-06T05:20:53;-2.48;80.32
71096;DHT22;58753;49.440;11.126;2023-04-06T05:23:18;-2.49;80.32
71096;DHT22;58753;49.440;11.126;2023-04-06T05:25:43;-2.46;80.54
71096;DHT22;58753;49.440;11.126;2023-04-06T05:28:09;-2.42;80.56
71096;DHT22;58753;49.440;11.126;2023-04-06T05:30:35;-2.40;80.43
71096;DHT22;58753;49.440;11.126;2023-04-06T05:33:01;-2.37;80.51
71096;DHT22;58753;49.440;11.126;2023-04-06T05:35:26;-2.28;80.60
71096;DHT22;58753;49.440;11.126;2023-04-06T05:37:52;-2.21;80.52
71096;DHT22;58753;49.440;11.126;2023-04-06T05:40:17;-2.17;80.50
71096;DHT22;58753;49.440;11.126;2023-04-06T05:42:43;-2.10;80.54
71096;DHT22;58753;49.440;11.126;2023-04-06T05:45:09;-2.01;80.39
71096;DHT22;58753;49.440;11.126;2023-04-06T05:47:44;-1.94;80.48
71096;DHT22;58753;49.440;11.126;2023-04-06T05:50:11;-1.84;80.19
71096;DHT22;58753;49.440;11.126;2023-04-06T05:52:36;-1.83;80.01
71096;DHT22;58753;49.440;11.126;2023-04-06T05:55:03;-1.79;79.95
71096;DHT22;58753;49.440;11.126;2023-04-06T05:57:28;-1.71;80.02
71096;DHT22;58753;49.440;11.126;2023-04-06T05:59:54;-1.67;79.93
71096;DHT22;58753;49.440;11.126;2023-04-06T06:02:20;-1.60;79.80
71096;DHT22;58753;49.440;11.126;2023-04-06T06:04:46;-1.53;79.80
71096;DHT22;58753;49.440;11.126;2023-04-06T06:07:11;-1.46;80.01
71096;DHT22;58753;49.440;11.126;2023-04-06T06:09:37;-1.34;79.83
71096;DHT22;58753;49.440;11.126;2023-04-06T06:12:02;-1.28;79.49
71096;DHT22;58753;49.440;11.126;2023-04-06T06:14:27;-1.25;79.31
71096;DHT22;58753;49.440;11.126;2023-04-06T06:16:56;-1.18;79.37
71096;DHT22;58753;49.440;11.126;2023-04-06T06:19:21;-1.06;79.34
71096;DHT22;58753;49.440;11.126;2023-04-06T06:21:47;-0.98;79.23
71096;DHT22;58753;49.440;11.126;2023-04-06T06:24:12;-0.89;79.17
71096;DHT22;58753;49.440;11.126;2023-04-06T06:26:38;-0.83;79.11
71096;DHT22;58753;49.440;11.126;2023-04-06T06:29:04;-0.74;78.94
71096;DHT22;58753;49.440;11.126;2023-04-06T06:31:31;-0.67;78.77
71096;DHT22;58753;49.440;11.126;2023-04-06T06:33:56;-0.60;78.66
71096;DHT22;58753;49.440;11.126;2023-04-06T06:36:22;-0.54;78.44
71096;DHT22;58753;49.440;11.126;2023-04-06T06:38:47;-0.47;78.23
71096;DHT22;58753;49.440;11.126;2023-04-06T06:41:12;-0.33;78.11
71096;DHT22;58753;49.440;11.126;2023-04-06T06:43:38;-0.24;77.84
71096;DHT22;58753;49.440;11.126;2023-04-06T06:46:04;-0.14;77.62
71096;DHT22;58753;49.440;11.126;2023-04-06T06:48:30;-0.02;77.36
71096;DHT22;58753;49.440;11.126;2023-04-06T06:50:56;0.14;77.08
71096;DHT22;58753;49.440;11.126;2023-04-06T06:53:22;0.29;76.78
71096;DHT22;58753;49.440;11.126;2023-04-06T06:55:48;0.41;76.45
71096;DHT22;58753;49.440;11.126;2023-04-06T06:58:18;0.58;76.18
71096;DHT22;58753;49.440;11.126;2023-04-06T07:00:44;0.77;75.67
71096;DHT22;58753;49.440;11.126;2023-04-06T07:03:10;0.90;75.21
71096;DHT22;58753;49.440;11.126;2023-04-06T07:05:35;1.03;74.67
71096;DHT22;58753;49.440;11.126;2023-04-06T07:08:01;1.16;74.22
71096;DHT22;58753;49.440;11.126;2023-04-06T07:10:26;1.28;73.77
71096;DHT22;58753;49.440;11.126;2023-04-06T07:12:52;1.46;73.38
71096;DHT22;58753;49.440;11.126;2023-04-06T07:15:18;1.60;72.90
71096;DHT22;58753;49.440;11.126;2023-04-06T07:17:43;1.74;72.42
71096;DHT22;58753;49.440;11.126;2023-04-06T07:20:12;1.86;71.91
71096;DHT22;58753;49.440;11.126;2023-04-06T07:22:39;2.03;71.44
71096;DHT22;58753;49.440;11.126;2023-04-06T07:25:05;2.18;70.67
71096;DHT22;58753;49.440;11.126;2023-04-06T07:27:30;2.33;70.14
71096;DHT22;58753;49.440;11.126;2023-04-06T07:29:56;2.49;69.52
71096;DHT22;58753;49.440;11.126;2023-04-06T07:32:21;2.61;68.84
71096;DHT22;58753;49.440;11.126;2023-04-06T07:34:47;2.73;68.04
71096;DHT22;58753;49.440;11.126;2023-04-06T07:37:12;2.83;67.30
71096;DHT22;58753;49.440;11.126;2023-04-06T07:39:38;2.91;66.93
71096;DHT22;58753;49.440;11.126;2023-04-06T07:42:03;3.00;66.23
71096;DHT22;58753;49.440;11.126;2023-04-06T07:44:28;3.03;65.76
71096;DHT22;58753;49.440;11.126;2023-04-06T07:46:54;3.09;65.47
71096;DHT22;58753;49.440;11.126;2023-04-06T07:49:20;3.21;64.99
71096;DHT22;58753;49.440;11.126;2023-04-06T07:51:46;3.34;64.66
71096;DHT22;58753;49.440;11.126;2023-04-06T07:54:11;3.48;64.03
71096;DHT22;58753;49.440;11.126;2023-04-06T07:56:37;3.51;63.30
71096;DHT22;58753;49.440;11.126;2023-04-06T07:59:02;3.59;62.99
71096;DHT22;58753;49.440;11.126;2023-04-06T08:01:28;3.73;62.14
71096;DHT22;58753;49.440;11.126;2023-04-06T08:03:55;3.94;61.25
71096;DHT22;58753;49.440;11.126;2023-04-06T08:06:20;4.07;60.49
71096;DHT22;58753;49.440;11.126;2023-04-06T08:08:46;4.09;60.02
71096;DHT22;58753;49.440;11.126;2023-04-06T08:11:11;4.18;59.82
71096;DHT22;58753;49.440;11.126;2023-04-06T08:13:37;4.27;59.71
71096;DHT22;58753;49.440;11.126;2023-04-06T08:16:02;4.47;58.77
71096;DHT22;58753;49.440;11.126;2023-04-06T08:18:27;4.57;58.05
71096;DHT22;58753;49.440;11.126;2023-04-06T08:20:55;4.62;57.68
71096;DHT22;58753;49.440;11.126;2023-04-06T08:23:21;4.79;56.80
71096;DHT22;58753;49.440;11.126;2023-04-06T08:25:46;5.00;55.57
71096;DHT22;58753;49.440;11.126;2023-04-06T08:28:12;5.18;54.36
71096;DHT22;58753;49.440;11.126;2023-04-06T08:30:40;5.39;53.46
71096;DHT22;58753;49.440;11.126;2023-04-06T08:33:06;5.56;52.85
71096;DHT22;58753;49.440;11.126;2023-04-06T08:35:31;5.59;52.24
71096;DHT22;58753;49.440;11.126;2023-04-06T08:37:57;5.69;52.02
71096;DHT22;58753;49.440;11.126;2023-04-06T08:40:22;5.81;51.81
71096;DHT22;58753;49.440;11.126;2023-04-06T08:42:52;6.12;50.10
71096;DHT22;58753;49.440;11.126;2023-04-06T08:45:19;6.20;49.52
71096;DHT22;58753;49.440;11.126;2023-04-06T08:47:52;6.15;49.34
71096;DHT22;58753;49.440;11.126;2023-04-06T08:50:20;6.22;49.27
71096;DHT22;58753;49.440;11.126;2023-04-06T08:52:49;6.29;48.93
71096;DHT22;58753;49.440;11.126;2023-04-06T08:55:15;6.50;47.74
71096;DHT22;58753;49.440;11.126;2023-04-06T08:57:41;6.66;47.27
71096;DHT22;58753;49.440;11.126;2023-04-06T09:00:09;6.80;45.70
71096;DHT22;58753;49.440;11.126;2023-04-06T09:02:39;6.76;45.65
71096;DHT22;58753;49.440;11.126;2023-04-06T09:05:07;6.95;45.96
71096;DHT22;58753;49.440;11.126;2023-04-06T09:07:33;7.07;45.28
71096;DHT22;58753;49.440;11.126;2023-04-06T09:09:58;7.18;44.18
71096;DHT22;58753;49.440;11.126;2023-04-06T09:12:28;7.28;43.21
71096;DHT22;58753;49.440;11.126;2023-04-06T09:14:54;7.24;42.96
71096;DHT22;58753;49.440;11.126;2023-04-06T09:17:28;7.27;43.03
71096;DHT22;58753;49.440;11.126;2023-04-06T09:19:56;7.24;42.77
71096;DHT22;58753;49.440;11.126;2023-04-06T09:22:22;7.26;42.73
71096;DHT22;58753;49.440;11.126;2023-04-06T09:24:51;7.38;42.07
71096;DHT22;58753;49.440;11.126;2023-04-06T09:27:18;7.47;41.50
71096;DHT22;58753;49.440;11.126;2023-04-06T09:30:03;7.54;41.43
71096;DHT22;58753;49.440;11.126;2023-04-06T09:32:28;7.62;41.23
71096;DHT22;58753;49.440;11.126;2023-04-06T09:34:54;7.78;40.83
71096;DHT22;58753;49.440;11.126;2023-04-06T09:37:30;7.75;40.43
71096;DHT22;58753;49.440;11.126;2023-04-06T09:40:02;7.88;40.06
71096;DHT22;58753;49.440;11.126;2023-04-06T09:42:28;7.89;39.64
71096;DHT22;58753;49.440;11.126;2023-04-06T09:44:54;7.89;39.42
71096;DHT22;58753;49.440;11.126;2023-04-06T09:47:20;7.95;39.36
71096;DHT22;58753;49.440;11.126;2023-04-06T09:49:50;8.03;39.59
71096;DHT22;58753;49.440;11.126;2023-04-06T09:52:16;8.09;38.95
71096;DHT22;58753;49.440;11.126;2023-04-06T09:54:43;8.16;38.65
71096;DHT22;58753;49.440;11.126;2023-04-06T10:00:09;8.43;38.53
71096;DHT22;58753;49.440;11.126;2023-04-06T10:02:45;8.54;38.34
71096;DHT22;58753;49.440;11.126;2023-04-06T10:07:47;8.73;37.62
71096;DHT22;58753;49.440;11.126;2023-04-06T10:10:14;8.76;37.41
71096;DHT22;58753;49.440;11.126;2023-04-06T10:12:40;8.76;37.30
71096;DHT22;58753;49.440;11.126;2023-04-06T10:15:07;8.85;37.52
71096;DHT22;58753;49.440;11.126;2023-04-06T10:17:33;8.94;37.38
71096;DHT22;58753;49.440;11.126;2023-04-06T10:20:10;9.00;37.47
71096;DHT22;58753;49.440;11.126;2023-04-06T10:22:41;9.07;37.49
71096;DHT22;58753;49.440;11.126;2023-04-06T10:25:09;9.05;37.35
71096;DHT22;58753;49.440;11.126;2023-04-06T10:27:35;9.08;36.90
71096;DHT22;58753;49.440;11.126;2023-04-06T10:30:05;9.19;36.84
71096;DHT22;58753;49.440;11.126;2023-04-06T10:35:08;9.52;36.90
71096;DHT22;58753;49.440;11.126;2023-04-06T10:37:59;9.66;36.54
71096;DHT22;58753;49.440;11.126;2023-04-06T10:40:26;9.82;35.85
71096;DHT22;58753;49.440;11.126;2023-04-06T10:42:53;10.06;35.37
71096;DHT22;58753;49.440;11.126;2023-04-06T10:45:20;10.02;35.24
71096;DHT22;58753;49.440;11.126;2023-04-06T10:47:46;10.21;35.24
71096;DHT22;58753;49.440;11.126;2023-04-06T10:50:14;10.40;35.38
71096;DHT22;58753;49.440;11.126;2023-04-06T10:52:41;10.44;34.49
71096;DHT22;58753;49.440;11.126;2023-04-06T10:55:08;10.45;34.07
71096;DHT22;58753;49.440;11.126;2023-04-06T10:57:35;10.51;33.65
71096;DHT22;58753;49.440;11.126;2023-04-06T11:00:04;10.61;33.78
71096;DHT22;58753;49.440;11.126;2023-04-06T11:02:30;10.74;34.01
71096;DHT22;58753;49.440;11.126;2023-04-06T11:04:57;11.16;34.05
71096;DHT22;58753;49.440;11.126;2023-04-06T11:07:26;12.71;33.81
71096;DHT22;58753;49.440;11.126;2023-04-06T11:09:52;13.56;31.61
71096;DHT22;58753;49.440;11.126;2023-04-06T11:12:26;14.46;30.64
71096;DHT22;58753;49.440;11.126;2023-04-06T11:14:53;15.35;30.38
71096;DHT22;58753;49.440;11.126;2023-04-06T11:17:25;16.48;28.56
71096;DHT22;58753;49.440;11.126;2023-04-06T11:19:51;16.74;27.16
71096;DHT22;58753;49.440;11.126;2023-04-06T11:22:16;17.31;26.91
71096;DHT22;58753;49.440;11.126;2023-04-06T11:24:42;17.69;24.80
71096;DHT22;58753;49.440;11.126;2023-04-06T11:27:07;17.95;25.93
71096;DHT22;58753;49.440;11.126;2023-04-06T11:29:33;18.77;25.24
71096;DHT22;58753;49.440;11.126;2023-04-06T11:32:05;19.12;24.30
71096;DHT22;58753;49.440;11.126;2023-04-06T11:34:33;19.41;23.70
71096;DHT22;58753;49.440;11.126;2023-04-06T11:37:01;18.74;21.90
71096;DHT22;58753;49.440;11.126;2023-04-06T11:39:29;17.42;22.33
71096;DHT22;58753;49.440;11.126;2023-04-06T11:42:00;18.22;22.88
71096;DHT22;58753;49.440;11.126;2023-04-06T11:44:38;19.42;24.01
71096;DHT22;58753;49.440;11.126;2023-04-06T11:47:09;20.07;22.80
71096;DHT22;58753;49.440;11.126;2023-04-06T11:49:37;20.20;21.07
71096;DHT22;58753;49.440;11.126;2023-04-06T11:52:14;20.41;20.43
71096;DHT22;58753;49.440;11.126;2023-04-06T11:54:40;20.37;20.06
71096;DHT22;58753;49.440;11.126;2023-04-06T11:57:08;20.48;20.16
71096;DHT22;58753;49.440;11.126;2023-04-06T11:59:34;20.68;20.66
71096;DHT22;58753;49.440;11.126;2023-04-06T12:02:01;20.81;20.01
71096;DHT22;58753;49.440;11.126;2023-04-06T12:04:27;20.78;19.60
71096;DHT22;58753;49.440;11.126;2023-04-06T12:06:52;20.54;18.47
71096;DHT22;58753;49.440;11.126;2023-04-06T12:09:18;20.28;18.36
71096;DHT22;58753;49.440;11.126;2023-04-06T12:11:43;20.20;18.44
71096;DHT22;58753;49.440;11.126;2023-04-06T12:14:09;19.97;18.09
71096;DHT22;58753;49.440;11.126;2023-04-06T12:16:35;19.96;18.96
71096;DHT22;58753;49.440;11.126;2023-04-06T12:19:00;20.36;19.73
71096;DHT22;58753;49.440;11.126;2023-04-06T12:21:27;20.51;18.95
71096;DHT22;58753;49.440;11.126;2023-04-06T12:23:54;20.31;18.22
71096;DHT22;58753;49.440;11.126;2023-04-06T12:26:20;20.34;18.88
71096;DHT22;58753;49.440;11.126;2023-04-06T12:28:46;19.97;18.29
71096;DHT22;58753;49.440;11.126;2023-04-06T12:31:21;20.33;18.94
71096;DHT22;58753;49.440;11.126;2023-04-06T12:33:51;20.18;18.74
71096;DHT22;58753;49.440;11.126;2023-04-06T12:36:20;20.57;18.64
71096;DHT22;58753;49.440;11.126;2023-04-06T12:38:50;20.63;18.44
71096;DHT22;58753;49.440;11.126;2023-04-06T12:41:16;20.16;17.49
71096;DHT22;58753;49.440;11.126;2023-04-06T12:43:42;19.98;18.54
71096;DHT22;58753;49.440;11.126;2023-04-06T12:46:08;20.18;18.23
71096;DHT22;58753;49.440;11.126;2023-04-06T12:48:34;20.24;18.82
71096;DHT22;58753;49.440;11.126;2023-04-06T12:51:02;20.34;18.43
71096;DHT22;58753;49.440;11.126;2023-04-06T12:53:28;20.63;19.25
71096;DHT22;58753;49.440;11.126;2023-04-06T12:55:54;20.92;19.41
71096;DHT22;58753;49.440;11.126;2023-04-06T12:58:20;21.66;19.91
71096;DHT22;58753;49.440;11.126;2023-04-06T13:00:47;21.57;18.51
71096;DHT22;58753;49.440;11.126;2023-04-06T13:03:13;21.29;17.89
71096;DHT22;58753;49.440;11.126;2023-04-06T13:05:48;21.05;17.89
71096;DHT22;58753;49.440;11.126;2023-04-06T13:08:14;21.02;18.52
71096;DHT22;58753;49.440;11.126;2023-04-06T13:10:51;20.67;17.68
71096;DHT22;58753;49.440;11.126;2023-04-06T13:13:28;20.28;17.58
71096;DHT22;58753;49.440;11.126;2023-04-06T13:16:02;20.21;17.66
71096;DHT22;58753;49.440;11.126;2023-04-06T13:18:29;19.93;17.65
71096;DHT22;58753;49.440;11.126;2023-04-06T13:20:55;20.10;17.81
71096;DHT22;58753;49.440;11.126;2023-04-06T13:23:25;20.54;17.96
71096;DHT22;58753;49.440;11.126;2023-04-06T13:26:04;21.03;17.67
71096;DHT22;58753;49.440;11.126;2023-04-06T13:28:30;21.25;16.49
71096;DHT22;58753;49.440;11.126;2023-04-06T13:30:58;21.91;17.02
71096;DHT22;58753;49.440;11.126;2023-04-06T13:33:23;21.96;17.31
71096;DHT22;58753;49.440;11.126;2023-04-06T13:35:49;21.84;17.19
71096;DHT22;58753;49.440;11.126;2023-04-06T13:38:14;21.76;16.84
71096;DHT22;58753;49.440;11.126;2023-04-06T13:40:41;21.39;16.77
71096;DHT22;58753;49.440;11.126;2023-04-06T13:43:07;21.19;17.26
71096;DHT22;58753;49.440;11.126;2023-04-06T13:45:33;21.09;17.01
71096;DHT22;58753;49.440;11.126;2023-04-06T13:47:59;21.52;17.00
71096;DHT22;58753;49.440;11.126;2023-04-06T13:50:28;21.83;17.16
71096;DHT22;58753;49.440;11.126;2023-04-06T13:52:53;21.87;16.91
71096;DHT22;58753;49.440;11.126;2023-04-06T13:55:19;21.67;16.69
71096;DHT22;58753;49.440;11.126;2023-04-06T13:57:44;21.43;16.63
71096;DHT22;58753;49.440;11.126;2023-04-06T14:00:10;21.77;17.71
71096;DHT22;58753;49.440;11.126;2023-04-06T14:02:38;21.77;17.64
71096;DHT22;58753;49.440;11.126;2023-04-06T14:05:04;21.96;17.66
71096;DHT22;58753;49.440;11.126;2023-04-06T14:07:30;21.89;16.66
71096;DHT22;58753;49.440;11.126;2023-04-06T14:09:55;21.56;16.57
71096;DHT22;58753;49.440;11.126;2023-04-06T14:12:21;21.02;16.50
71096;DHT22;58753;49.440;11.126;2023-04-06T14:14:46;19.16;17.00
71096;DHT22;58753;49.440;11.126;2023-04-06T14:17:12;18.80;18.31
71096;DHT22;58753;49.440;11.126;2023-04-06T14:19:37;17.79;17.97
71096;DHT22;58753;49.440;11.126;2023-04-06T14:22:03;17.17;19.42
71096;DHT22;58753;49.440;11.126;2023-04-06T14:24:29;18.22;20.92
71096;DHT22;58753;49.440;11.126;2023-04-06T14:26:55;18.87;20.96
71096;DHT22;58753;49.440;11.126;2023-04-06T14:29:21;19.63;21.08
71096;DHT22;58753;49.440;11.126;2023-04-06T14:31:47;20.06;20.64
71096;DHT22;58753;49.440;11.126;2023-04-06T14:34:13;20.84;20.32
71096;DHT22;58753;49.440;11.126;2023-04-06T14:36:38;21.40;19.76
71096;DHT22;58753;49.440;11.126;2023-04-06T14:39:05;21.63;18.76
71096;DHT22;58753;49.440;11.126;2023-04-06T14:41:31;21.56;17.84
71096;DHT22;58753;49.440;11.126;2023-04-06T14:43:57;21.62;18.45
71096;DHT22;58753;49.440;11.126;2023-04-06T14:46:23;21.50;17.64
71096;DHT22;58753;49.440;11.126;2023-04-06T14:48:49;21.19;17.79
71096;DHT22;58753;49.440;11.126;2023-04-06T14:51:14;20.13;17.08
71096;DHT22;58753;49.440;11.126;2023-04-06T14:53:40;19.46;18.93
71096;DHT22;58753;49.440;11.126;2023-04-06T14:56:06;19.82;19.24
71096;DHT22;58753;49.440;11.126;2023-04-06T14:58:31;20.21;19.50
71096;DHT22;58753;49.440;11.126;2023-04-06T15:00:58;20.16;18.80
71096;DHT22;58753;49.440;11.126;2023-04-06T15:03:28;20.07;19.48
71096;DHT22;58753;49.440;11.126;2023-04-06T15:05:55;20.00;18.97
71096;DHT22;58753;49.440;11.126;2023-04-06T15:08:22;19.80;18.49
71096;DHT22;58753;49.440;11.126;2023-04-06T15:10:50;19.55;19.19
71096;DHT22;58753;49.440;11.126;2023-04-06T15:13:17;19.32;18.84
71096;DHT22;58753;49.440;11.126;2023-04-06T15:15:43;19.16;18.87
71096;DHT22;58753;49.440;11.126;2023-04-06T15:18:09;18.98;19.23
71096;DHT22;58753;49.440;11.126;2023-04-06T15:20:35;18.32;18.63
71096;DHT22;58753;49.440;11.126;2023-04-06T15:23:02;17.61;18.83